createdAt,value
2023-05-23T00:01:59.032Z,101464.22
2023-05-23T00:04:31.496Z,101464.34
2023-05-23T00:07:08.269Z,101460.81
2023-05-23T00:09:40.645Z,101454.66
2023-05-23T00:12:12.715Z,101448.47
2023-05-23T00:14:45.519Z,101446.81
2023-05-23T00:17:17.797Z,101445.13
2023-05-23T00:19:50.008Z,101447.75
2023-05-23T00:22:22.427Z,101446.72
2023-05-23T00:24:55.101Z,101443.41
2023-05-23T00:27:27.153Z,101456.66
2023-05-23T00:29:59.252Z,101457.44
2023-05-23T00:32:31.391Z,101454.81
2023-05-23T00:35:03.976Z,101448.66
2023-05-23T00:37:36.094Z,101448.56
2023-05-23T00:40:08.909Z,101450.28
2023-05-23T00:42:40.997Z,101450.25
2023-05-23T00:45:13.142Z,101439.75
2023-05-23T00:47:54.526Z,101445.09
2023-05-23T00:50:30.878Z,101444.31
2023-05-23T00:53:03.149Z,101440.84
2023-05-23T00:55:35.442Z,101445.28
2023-05-23T00:58:07.519Z,101454.84
2023-05-23T01:00:39.664Z,101443.53
2023-05-23T01:03:18.476Z,101442.72
2023-05-23T01:05:51.757Z,101436.47
2023-05-23T01:08:23.886Z,101434.59
2023-05-23T01:11:02.942Z,101433.75
2023-05-23T01:13:45.194Z,101434.78
2023-05-23T01:16:33.616Z,101425.13
2023-05-23T01:19:42.729Z,101424.22
2023-05-23T01:23:25.498Z,101423.38
2023-05-23T01:26:19.870Z,101419.94
2023-05-23T01:29:03.440Z,101415.50
2023-05-23T01:31:38.261Z,101411.00
2023-05-23T01:34:12.852Z,101410.03
2023-05-23T01:36:45.464Z,101399.53
2023-05-23T01:39:17.752Z,101410.00
2023-05-23T01:41:51.665Z,101412.06
2023-05-23T01:44:23.789Z,101412.28
2023-05-23T01:46:55.977Z,101409.50
2023-05-23T01:49:28.453Z,101409.28
2023-05-23T01:52:02.148Z,101413.66
2023-05-23T01:54:35.671Z,101416.25
2023-05-23T01:57:07.780Z,101407.34
2023-05-23T01:59:39.946Z,101413.47
2023-05-23T02:02:12.259Z,101411.69
2023-05-23T02:04:44.435Z,101410.28
2023-05-23T02:07:16.538Z,101420.06
2023-05-23T02:09:49.011Z,101416.56
2023-05-23T02:12:21.235Z,101417.38
2023-05-23T02:14:55.499Z,101421.66
2023-05-23T02:17:27.820Z,101423.31
2023-05-23T02:19:59.963Z,101429.44
2023-05-23T02:22:32.172Z,101435.88
2023-05-23T02:25:04.872Z,101430.44
2023-05-23T02:27:36.975Z,101422.41
2023-05-23T02:30:09.746Z,101424.09
2023-05-23T02:32:41.871Z,101430.22
2023-05-23T02:35:14.308Z,101424.81
2023-05-23T02:37:46.381Z,101423.09
2023-05-23T02:40:18.468Z,101425.81
2023-05-23T02:42:51.833Z,101420.63
2023-05-23T02:45:24.754Z,101413.63
2023-05-23T02:47:56.914Z,101411.03
2023-05-23T02:50:29.079Z,101414.63
2023-05-23T02:53:01.163Z,101405.81
2023-05-23T02:55:33.416Z,101403.09
2023-05-23T02:58:06.020Z,101403.03
2023-05-23T03:00:44.022Z,101405.94
2023-05-23T03:03:17.260Z,101402.38
2023-05-23T03:05:50.043Z,101407.56
2023-05-23T03:08:22.380Z,101400.50
2023-05-23T03:10:54.678Z,101406.56
2023-05-23T03:13:36.376Z,101406.72
2023-05-23T03:16:08.715Z,101410.22
2023-05-23T03:18:42.362Z,101404.16
2023-05-23T03:21:14.998Z,101408.97
2023-05-23T03:23:47.503Z,101411.91
2023-05-23T03:26:23.287Z,101406.03
2023-05-23T03:28:56.396Z,101398.34
2023-05-23T03:31:28.857Z,101405.38
2023-05-23T03:34:01.415Z,101414.28
2023-05-23T03:36:34.527Z,101414.28
2023-05-23T03:39:07.121Z,101411.72
2023-05-23T03:41:39.439Z,101426.66
2023-05-23T03:44:15.015Z,101424.94
2023-05-23T03:46:47.518Z,101421.53
2023-05-23T03:49:50.580Z,101423.50
2023-05-23T03:52:23.554Z,101428.00
2023-05-23T03:54:55.758Z,101424.41
2023-05-23T03:57:29.339Z,101425.34
2023-05-23T04:00:01.789Z,101425.25
2023-05-23T04:02:34.205Z,101429.63
2023-05-23T04:05:07.429Z,101430.41
2023-05-23T04:07:40.475Z,101430.47
2023-05-23T04:10:12.913Z,101432.16
2023-05-23T04:13:05.548Z,101440.06
2023-05-23T04:15:38.000Z,101444.38
2023-05-23T04:18:10.761Z,101442.78
2023-05-23T04:20:43.203Z,101459.38
2023-05-23T04:23:46.206Z,101450.63
2023-05-23T04:26:20.941Z,101451.50
2023-05-23T04:28:54.573Z,101448.88
2023-05-23T04:31:27.277Z,101449.88
2023-05-23T04:33:59.615Z,101448.94
2023-05-23T04:36:31.905Z,101455.06
2023-05-23T04:39:11.478Z,101459.50
2023-05-23T04:41:45.579Z,101459.56
2023-05-23T04:44:21.274Z,101460.34
2023-05-23T04:46:54.143Z,101456.78
2023-05-23T04:49:27.191Z,101471.72
2023-05-23T04:51:59.589Z,101465.50
2023-05-23T04:54:31.884Z,101465.50
2023-05-23T04:57:04.441Z,101463.72
2023-05-23T04:59:39.660Z,101471.53
2023-05-23T05:02:19.578Z,101470.75
2023-05-23T05:04:52.034Z,101486.75
2023-05-23T05:07:27.364Z,101488.56
2023-05-23T05:10:01.268Z,101488.63
2023-05-23T05:12:34.666Z,101488.81
2023-05-23T05:15:08.185Z,101498.50
2023-05-23T05:17:40.950Z,101502.06
2023-05-23T05:20:13.430Z,101497.78
2023-05-23T05:22:57.954Z,101515.31
2023-05-23T05:25:32.583Z,101502.25
2023-05-23T05:28:07.854Z,101508.31
2023-05-23T05:30:40.526Z,101517.03
2023-05-23T05:33:14.968Z,101513.53
2023-05-23T05:35:47.530Z,101520.59
2023-05-23T05:38:20.544Z,101525.09
2023-05-23T05:40:55.027Z,101533.19
2023-05-23T05:43:27.430Z,101547.22
2023-05-23T05:45:59.782Z,101542.84
2023-05-23T05:48:32.450Z,101544.56
2023-05-23T05:51:05.149Z,101553.44
2023-05-23T05:53:37.614Z,101556.03
2023-05-23T05:56:09.909Z,101556.00
2023-05-23T05:58:45.283Z,101566.50
2023-05-23T06:01:18.089Z,101562.97
2023-05-23T06:03:50.588Z,101570.94
2023-05-23T06:06:22.960Z,101567.41
2023-05-23T06:08:55.291Z,101565.59
2023-05-23T06:11:28.270Z,101573.47
2023-05-23T06:14:00.785Z,101585.78
2023-05-23T06:16:38.171Z,101584.06
2023-05-23T06:19:10.684Z,101590.22
2023-05-23T06:21:42.959Z,101592.81
2023-05-23T06:24:18.739Z,101604.34
2023-05-23T06:26:51.104Z,101601.72
2023-05-23T06:29:23.555Z,101605.25
2023-05-23T06:31:56.122Z,101604.38
2023-05-23T06:34:28.613Z,101614.00
2023-05-23T06:37:00.978Z,101625.38
2023-05-23T06:39:33.353Z,101632.44
2023-05-23T06:42:06.197Z,101637.66
2023-05-23T06:44:38.900Z,101628.91
2023-05-23T06:47:11.262Z,101630.69
2023-05-23T06:49:43.536Z,101629.75
2023-05-23T06:52:15.778Z,101643.84
2023-05-23T06:54:48.121Z,101631.56
2023-05-23T06:57:20.477Z,101642.13
2023-05-23T06:59:55.580Z,101649.94
2023-05-23T07:02:27.845Z,101654.34
2023-05-23T07:05:00.371Z,101654.41
2023-05-23T07:07:32.815Z,101656.09
2023-05-23T07:10:05.621Z,101666.50
2023-05-23T07:12:37.938Z,101669.09
2023-05-23T07:15:18.605Z,101667.47
2023-05-23T07:17:51.015Z,101679.75
2023-05-23T07:20:23.378Z,101676.25
2023-05-23T07:22:56.032Z,101694.66
2023-05-23T07:25:28.453Z,101687.69
2023-05-23T07:28:01.035Z,101686.84
2023-05-23T07:30:33.492Z,101697.38
2023-05-23T07:33:05.892Z,101704.38
2023-05-23T07:35:38.206Z,101707.03
2023-05-23T07:38:10.663Z,101708.72
2023-05-23T07:40:43.231Z,101728.91
2023-05-23T07:43:15.681Z,101722.78
2023-05-23T07:45:50.860Z,101720.13
2023-05-23T07:48:23.105Z,101728.91
2023-05-23T07:50:55.808Z,101731.56
2023-05-23T07:53:28.086Z,101736.81
2023-05-23T07:56:00.320Z,101747.31
2023-05-23T07:58:32.620Z,101745.56
2023-05-23T08:01:05.161Z,101745.59
2023-05-23T08:03:37.823Z,101756.06
2023-05-23T08:06:10.477Z,101760.41
2023-05-23T08:08:44.048Z,101752.56
2023-05-23T08:11:16.506Z,101755.16
2023-05-23T08:13:48.959Z,101770.94
2023-05-23T08:16:21.970Z,101777.97
2023-05-23T08:18:54.515Z,101771.81
2023-05-23T08:21:27.093Z,101774.47
2023-05-23T08:23:59.796Z,101774.47
2023-05-23T08:26:35.178Z,101776.22
2023-05-23T08:29:07.647Z,101798.09
2023-05-23T08:31:39.942Z,101793.72
2023-05-23T08:34:12.949Z,101796.34
2023-05-23T08:36:45.432Z,101798.97
2023-05-23T08:39:17.895Z,101806.84
2023-05-23T08:41:50.964Z,101808.59
2023-05-23T08:44:23.438Z,101808.56
2023-05-23T08:46:58.705Z,101812.97
2023-05-23T08:49:32.093Z,101815.59
2023-05-23T08:52:04.944Z,101815.59
2023-05-23T08:54:37.536Z,101819.09
2023-05-23T08:57:11.973Z,101822.59
2023-05-23T08:59:44.605Z,101828.72
2023-05-23T09:02:17.298Z,101833.09
2023-05-23T09:04:49.661Z,101838.34
2023-05-23T09:07:21.733Z,101851.47
2023-05-23T09:09:53.937Z,101846.22
2023-05-23T09:12:26.204Z,101847.97
2023-05-23T09:14:58.339Z,101853.22
2023-05-23T09:17:34.992Z,101866.34
2023-05-23T09:20:18.491Z,101852.34
2023-05-23T09:22:50.742Z,101859.34
2023-05-23T09:25:22.960Z,101867.22
2023-05-23T09:27:56.807Z,101880.34
2023-05-23T09:30:35.296Z,101877.72
2023-05-23T09:33:08.735Z,101881.22
2023-05-23T09:35:46.462Z,101891.72
2023-05-23T09:38:19.921Z,101890.84
2023-05-23T09:40:58.140Z,101908.41
2023-05-23T09:43:30.570Z,101907.50
2023-05-23T09:46:11.475Z,101911.03
2023-05-23T09:48:52.411Z,101911.00
2023-05-23T09:51:24.836Z,101920.63
2023-05-23T09:53:57.206Z,101922.38
2023-05-23T09:56:29.802Z,101923.28
2023-05-23T09:59:03.272Z,101934.66
2023-05-23T10:01:36.017Z,101932.03
2023-05-23T10:04:09.597Z,101929.38
2023-05-23T10:06:43.288Z,101937.22
2023-05-23T10:09:20.436Z,101938.13
2023-05-23T10:12:45.231Z,101934.63
2023-05-23T10:15:19.377Z,101939.00
2023-05-23T10:18:04.418Z,101930.22
2023-05-23T10:20:40.971Z,101934.56
2023-05-23T10:23:13.878Z,101947.63
2023-05-23T10:25:46.434Z,101945.81
2023-05-23T10:28:18.869Z,101944.06
2023-05-23T10:30:51.508Z,101950.06
2023-05-23T10:33:27.063Z,101944.78
2023-05-23T10:36:26.021Z,101962.38
2023-05-23T10:39:14.122Z,101962.50
2023-05-23T10:42:42.270Z,101954.63
2023-05-23T10:45:24.889Z,101961.56
2023-05-23T10:47:57.208Z,101960.63
2023-05-23T10:50:36.002Z,101965.91
2023-05-23T10:53:11.508Z,101963.47
2023-05-23T10:55:49.652Z,101965.41
2023-05-23T10:58:23.442Z,101967.69
2023-05-23T11:01:02.682Z,101976.16
2023-05-23T11:03:47.187Z,101969.53
2023-05-23T11:06:45.162Z,101972.16
2023-05-23T11:09:19.731Z,101979.25
2023-05-23T11:12:05.955Z,101976.56
2023-05-23T11:14:40.893Z,101976.78
2023-05-23T11:17:13.222Z,101975.59
2023-05-23T11:20:17.229Z,101969.81
2023-05-23T11:23:12.374Z,101993.75
2023-05-23T11:25:52.315Z,101984.38
2023-05-23T11:28:25.281Z,101994.06
2023-05-23T11:30:57.880Z,101999.53
2023-05-23T11:33:31.285Z,101998.63
2023-05-23T11:36:05.078Z,102010.00
2023-05-23T11:38:37.280Z,102012.78
2023-05-23T11:41:09.373Z,102007.56
2023-05-23T11:43:53.402Z,102015.56
2023-05-23T11:46:25.873Z,102009.53
2023-05-23T11:48:58.257Z,102013.91
2023-05-23T11:51:30.389Z,102018.84
2023-05-23T11:54:02.538Z,102024.13
2023-05-23T11:56:40.921Z,102018.22
2023-05-23T11:59:13.243Z,102025.66
2023-05-23T12:01:50.755Z,102013.44
2023-05-23T12:04:23.322Z,102021.38
2023-05-23T12:06:55.838Z,102024.00
2023-05-23T12:09:28.099Z,102024.00
2023-05-23T12:12:01.331Z,102023.78
2023-05-23T12:14:34.765Z,102006.50
2023-05-23T12:17:06.899Z,102031.16
2023-05-23T12:19:41.018Z,102023.03
2023-05-23T12:22:13.235Z,102034.44
2023-05-23T12:25:43.406Z,102025.31
2023-05-23T12:28:16.314Z,102034.78
2023-05-23T12:30:49.827Z,102028.47
2023-05-23T12:33:22.086Z,102027.50
2023-05-23T12:35:54.251Z,102028.72
2023-05-23T12:38:29.097Z,102032.72
2023-05-23T12:41:21.103Z,102037.94
2023-05-23T12:43:55.263Z,102047.31
2023-05-23T12:46:28.439Z,102047.03
2023-05-23T12:49:00.624Z,102046.91
2023-05-23T12:51:32.936Z,102052.34
2023-05-23T12:54:05.253Z,102047.47
2023-05-23T12:56:37.411Z,102057.41
2023-05-23T12:59:09.643Z,102054.91
2023-05-23T13:01:41.960Z,102044.28
2023-05-23T13:04:14.289Z,102044.84
2023-05-23T13:06:46.952Z,102066.88
2023-05-23T13:09:19.274Z,102055.81
2023-05-23T13:11:51.805Z,102059.47
2023-05-23T13:19:47.169Z,102065.56
2023-05-23T13:22:19.440Z,102068.09
2023-05-23T13:25:14.704Z,102062.28
2023-05-23T13:27:48.913Z,102077.06
2023-05-23T13:30:23.240Z,102077.72
2023-05-23T13:32:55.926Z,102071.00
2023-05-23T13:35:28.529Z,102076.81
2023-05-23T13:38:01.134Z,102066.25
2023-05-23T13:40:33.427Z,102081.78
2023-05-23T13:43:06.329Z,102075.63
2023-05-23T13:45:39.190Z,102072.59
2023-05-23T13:48:20.692Z,102070.91
2023-05-23T13:52:20.728Z,102078.56
2023-05-23T13:54:57.327Z,102078.66
2023-05-23T13:57:29.662Z,102093.16
2023-05-23T14:00:03.437Z,102083.69
2023-05-23T14:02:37.728Z,102083.97
2023-05-23T14:05:47.959Z,102089.31
2023-05-23T14:08:20.600Z,102096.69
2023-05-23T14:10:53.436Z,102084.72
2023-05-23T14:13:25.864Z,102089.38
2023-05-23T14:15:58.410Z,102095.13
2023-05-23T14:18:30.835Z,102086.91
2023-05-23T14:21:03.419Z,102086.38
2023-05-23T14:23:35.555Z,102090.81
2023-05-23T14:26:08.132Z,102093.44
2023-05-23T14:28:40.657Z,102092.34
2023-05-23T14:31:13.038Z,102095.13
2023-05-23T14:34:12.126Z,102094.16
2023-05-23T14:36:47.390Z,102092.75
2023-05-23T14:39:19.557Z,102101.06
2023-05-23T14:41:51.904Z,102096.50
2023-05-23T14:44:24.876Z,102087.13
2023-05-23T14:46:57.336Z,102094.63
2023-05-23T14:49:32.761Z,102102.22
2023-05-23T14:52:05.281Z,102113.09
2023-05-23T14:54:37.527Z,102114.97
2023-05-23T14:57:10.589Z,102121.22
2023-05-23T14:59:46.787Z,102114.22
2023-05-23T15:02:21.843Z,102116.06
2023-05-23T15:04:56.521Z,102116.06
2023-05-23T15:10:19.335Z,102123.03
2023-05-23T15:12:52.118Z,102125.66
2023-05-23T15:15:24.631Z,102134.22
2023-05-23T15:18:39.419Z,102133.41
2023-05-23T15:21:15.262Z,102131.72
2023-05-23T15:23:47.628Z,102129.75
2023-05-23T15:26:20.206Z,102119.72
2023-05-23T15:28:52.433Z,102148.72
2023-05-23T15:32:16.979Z,102152.41
2023-05-23T15:34:51.314Z,102137.53
2023-05-23T15:37:23.702Z,102135.88
2023-05-23T15:40:16.238Z,102133.41
2023-05-23T15:42:48.559Z,102140.44
2023-05-23T15:45:20.878Z,102138.94
2023-05-23T15:47:53.166Z,102143.56
2023-05-23T15:50:28.356Z,102138.28
2023-05-23T15:53:00.625Z,102134.06
2023-05-23T15:55:33.152Z,102133.97
2023-05-23T15:58:10.847Z,102134.84
2023-05-23T16:00:50.856Z,102131.22
2023-05-23T16:03:34.467Z,102134.63
2023-05-23T16:06:28.679Z,102134.50
2023-05-23T16:09:03.226Z,102131.84
2023-05-23T16:11:35.732Z,102143.47
2023-05-23T16:14:08.029Z,102158.59
2023-05-23T16:20:32.516Z,102143.00
2023-05-23T16:23:07.890Z,102143.94
2023-05-23T16:25:40.212Z,102144.78
2023-05-23T16:28:51.130Z,102159.72
2023-05-23T16:31:28.125Z,102150.94
2023-05-23T16:34:07.225Z,102143.03
2023-05-23T16:36:39.487Z,102146.50
2023-05-23T16:39:16.748Z,102142.16
2023-05-23T16:42:16.910Z,102152.81
2023-05-23T16:44:53.482Z,102152.81
2023-05-23T16:47:41.937Z,102158.00
2023-05-23T16:50:14.565Z,102161.50
2023-05-23T16:52:46.763Z,102153.59
2023-05-23T16:55:19.021Z,102151.81
2023-05-23T16:57:51.164Z,102161.47
2023-05-23T17:00:23.385Z,102156.22
2023-05-23T17:02:55.969Z,102167.63
2023-05-23T17:05:28.356Z,102171.16
2023-05-23T17:08:00.693Z,102157.19
2023-05-23T17:10:33.755Z,102157.13
2023-05-23T17:13:06.042Z,102163.34
2023-05-23T17:15:38.267Z,102166.91
2023-05-23T17:18:10.635Z,102159.00
2023-05-23T17:20:42.813Z,102165.16
2023-05-23T17:23:14.944Z,102158.09
2023-05-23T17:25:47.546Z,102159.84
2023-05-23T17:28:19.713Z,102163.34
2023-05-23T17:30:53.336Z,102166.84
2023-05-23T17:33:25.555Z,102172.16
2023-05-23T17:35:57.704Z,102164.22
2023-05-23T17:38:29.934Z,102171.19
2023-05-23T17:41:02.102Z,102169.47
2023-05-23T17:43:35.877Z,102176.53
2023-05-23T17:46:08.194Z,102173.03
2023-05-23T17:48:47.525Z,102175.63
2023-05-23T17:51:21.078Z,102183.50
2023-05-23T17:53:54.060Z,102182.59
2023-05-23T17:56:26.352Z,102193.94
2023-05-23T17:58:58.763Z,102186.91
2023-05-23T18:01:31.223Z,102189.47
2023-05-23T18:04:03.579Z,102200.91
2023-05-23T18:06:36.260Z,102198.22
2023-05-23T18:09:09.955Z,102192.06
2023-05-23T18:11:47.468Z,102190.38
2023-05-23T18:14:19.951Z,102194.75
2023-05-23T18:16:52.776Z,102197.41
2023-05-23T18:19:26.476Z,102199.16
2023-05-23T18:21:59.599Z,102200.91
2023-05-23T18:24:31.871Z,102200.88
2023-05-23T18:27:04.891Z,102214.88
2023-05-23T18:29:37.453Z,102212.22
2023-05-23T18:32:09.939Z,102219.28
2023-05-23T18:34:42.602Z,102210.53
2023-05-23T18:37:19.265Z,102213.13
2023-05-23T18:39:51.675Z,102214.88
2023-05-23T18:42:24.307Z,102219.22
2023-05-23T18:44:56.603Z,102219.97
2023-05-23T18:47:28.833Z,102224.34
2023-05-23T18:50:01.481Z,102219.03
2023-05-23T18:52:37.340Z,102226.91
2023-05-23T18:55:14.724Z,102227.78
2023-05-23T18:57:50.773Z,102227.78
2023-05-23T19:00:22.981Z,102227.75
2023-05-23T19:02:55.344Z,102229.38
2023-05-23T19:05:27.755Z,102241.66
2023-05-23T19:07:59.889Z,102238.19
2023-05-23T19:10:32.051Z,102239.78
2023-05-23T19:13:05.347Z,102235.34
2023-05-23T19:15:38.055Z,102231.03
2023-05-23T19:18:10.729Z,102240.59
2023-05-23T19:20:43.500Z,102243.19
2023-05-23T19:23:16.454Z,102242.22
2023-05-23T19:25:48.728Z,102239.47
2023-05-23T19:28:21.492Z,102248.28
2023-05-23T19:30:53.648Z,102234.25
2023-05-23T19:33:26.150Z,102236.88
2023-05-23T19:35:59.383Z,102237.81
2023-05-23T19:38:32.095Z,102234.38
2023-05-23T19:41:05.169Z,102237.81
2023-05-23T19:46:33.790Z,102242.88
2023-05-23T19:51:28.788Z,102248.09
2023-05-23T19:52:47.154Z,102247.88
2023-05-23T19:55:39.225Z,102251.41
2023-05-23T19:58:14.469Z,102255.00
2023-05-23T20:01:17.685Z,102254.06
2023-05-23T20:03:56.252Z,102257.66
2023-05-23T20:06:28.903Z,102253.16
2023-05-23T20:09:09.611Z,102248.81
2023-05-23T20:11:47.162Z,102261.97
2023-05-23T20:14:22.778Z,102259.25
2023-05-23T20:16:59.120Z,102263.66
2023-05-23T20:19:47.677Z,102263.59
2023-05-23T20:22:20.072Z,102257.34
2023-05-23T20:24:52.406Z,102266.88
2023-05-23T20:27:24.874Z,102263.44
2023-05-23T20:30:04.409Z,102264.31
2023-05-23T20:32:37.286Z,102256.31
2023-05-23T20:35:13.215Z,102266.88
2023-05-23T20:37:49.345Z,102252.97
2023-05-23T20:40:23.157Z,102248.59
2023-05-23T20:43:04.851Z,102255.59
2023-05-23T20:45:37.292Z,102252.94
2023-05-23T20:48:09.675Z,102266.03
2023-05-23T20:50:42.284Z,102263.38
2023-05-23T20:53:14.995Z,102267.69
2023-05-23T20:56:01.001Z,102259.69
2023-05-23T20:58:34.059Z,102260.50
2023-05-23T21:01:06.649Z,102259.69
2023-05-23T21:03:39.792Z,102271.06
2023-05-23T21:06:12.211Z,102256.97
2023-05-23T21:08:50.464Z,102251.69
2023-05-23T21:11:26.467Z,102270.00
2023-05-23T21:13:59.039Z,102261.22
2023-05-23T21:16:33.237Z,102263.81
2023-05-23T21:19:06.001Z,102275.19
2023-05-23T21:21:38.572Z,102276.00
2023-05-23T21:24:10.797Z,102275.22
2023-05-23T21:26:43.763Z,102268.16
2023-05-23T21:29:16.243Z,102267.28
2023-05-23T21:31:48.633Z,102267.31
2023-05-23T21:34:24.185Z,102269.06
2023-05-23T21:36:56.941Z,102258.38
2023-05-23T21:39:39.252Z,102262.81
2023-05-23T21:42:20.256Z,102255.66
2023-05-23T21:44:52.485Z,102247.72
2023-05-23T21:47:25.313Z,102249.47
2023-05-23T21:49:57.754Z,102248.50
2023-05-23T21:52:30.881Z,102254.75
2023-05-23T21:55:06.468Z,102249.38
2023-05-23T21:57:38.864Z,102251.13
2023-05-23T22:00:15.607Z,102246.81
2023-05-23T22:02:48.693Z,102251.19
2023-05-23T22:05:21.261Z,102244.16
2023-05-23T22:07:53.530Z,102243.31
2023-05-23T22:10:25.832Z,102243.22
2023-05-23T22:12:58.601Z,102250.13
2023-05-23T22:15:32.732Z,102251.09
2023-05-23T22:18:05.216Z,102248.50
2023-05-23T22:20:39.319Z,102247.53
2023-05-23T22:23:17.002Z,102250.19
2023-05-23T22:25:49.415Z,102242.25
2023-05-23T22:28:21.830Z,102255.31
2023-05-23T22:30:54.259Z,102257.03
2023-05-23T22:33:28.841Z,102252.47
2023-05-23T22:36:46.423Z,102245.50
2023-05-23T22:40:07.611Z,102244.63
2023-05-23T22:42:47.402Z,102256.81
2023-05-23T22:52:35.920Z,102249.88
2023-05-23T22:55:09.965Z,102255.06
2023-05-23T22:57:43.948Z,102249.94
2023-05-23T23:00:16.572Z,102260.44
2023-05-23T23:02:49.029Z,102252.56
2023-05-23T23:05:22.325Z,102257.75
2023-05-23T23:07:54.756Z,102260.44
2023-05-23T23:10:27.057Z,102250.72
2023-05-23T23:12:59.241Z,102246.50
2023-05-23T23:15:34.076Z,102236.81
2023-05-23T23:18:06.909Z,102234.19
2023-05-23T23:20:39.461Z,102234.22
2023-05-23T23:23:18.992Z,102230.59
2023-05-23T23:25:52.495Z,102234.94
2023-05-23T23:28:24.936Z,102233.94
2023-05-23T23:30:57.138Z,102238.28
2023-05-23T23:33:29.597Z,102240.06
2023-05-23T23:36:01.775Z,102239.25
2023-05-23T23:38:34.167Z,102237.47
2023-05-23T23:41:06.395Z,102237.53
2023-05-23T23:43:38.606Z,102232.13
2023-05-23T23:46:11.463Z,102239.09
2023-05-23T23:48:44.977Z,102228.50
2023-05-23T23:51:17.306Z,102240.63
2023-05-23T23:53:52.425Z,102234.53
2023-05-23T23:56:26.382Z,102232.78
2023-05-23T23:58:58.545Z,102225.81
